createdAt,value
2019-05-07T00:00:03.321Z,4.5
2019-05-07T00:05:02.617Z,4.5
2019-05-07T00:10:03.320Z,4.5
2019-05-07T00:15:04.418Z,4.5
2019-05-07T00:20:02.249Z,4.4
2019-05-07T00:25:03.079Z,4.4
2019-05-07T00:30:02.959Z,4.4
2019-05-07T00:35:02.477Z,4.4
2019-05-07T00:40:02.683Z,4.3
2019-05-07T00:45:13.899Z,4.3
2019-05-07T00:50:03.272Z,4.3
2019-05-07T00:55:02.899Z,4.3
2019-05-07T01:00:02.250Z,4.2
2019-05-07T01:05:02.955Z,4.2
2019-05-07T01:10:02.277Z,4.2
2019-05-07T01:15:02.830Z,4.1
2019-05-07T01:20:02.875Z,3.9
2019-05-07T01:25:02.246Z,3.8
2019-05-07T01:30:02.614Z,3.7
2019-05-07T01:35:02.431Z,3.6
2019-05-07T01:40:03.006Z,3.5
2019-05-07T01:45:02.258Z,3.4
2019-05-07T01:50:02.971Z,3.4
2019-05-07T01:55:03.160Z,3.3
2019-05-07T02:00:02.670Z,3.2
2019-05-07T02:05:03.145Z,3.2
2019-05-07T02:10:02.777Z,3.2
2019-05-07T02:15:02.643Z,3
2019-05-07T02:25:03.275Z,2.9
2019-05-07T02:30:04.042Z,2.9
2019-05-07T02:35:03.944Z,2.9
2019-05-07T02:40:04.405Z,2.9
2019-05-07T02:45:03.960Z,2.9
2019-05-07T02:50:02.994Z,2.9
2019-05-07T02:55:03.835Z,2.9
2019-05-07T03:00:04.395Z,2.9
2019-05-07T03:05:04.815Z,2.9
2019-05-07T03:10:03.430Z,2.9
2019-05-07T03:15:04.418Z,3
2019-05-07T03:20:03.084Z,3
2019-05-07T03:25:03.234Z,3.1
2019-05-07T03:30:04.188Z,3.1
2019-05-07T03:35:06.491Z,3.2
2019-05-07T03:40:03.755Z,3.2
2019-05-07T03:45:03.589Z,3.2
2019-05-07T03:50:03.196Z,3.3
2019-05-07T03:55:03.646Z,3.3
2019-05-07T04:00:04.158Z,3.4
2019-05-07T04:05:04.177Z,3.4
2019-05-07T04:10:04.313Z,3.5
2019-05-07T04:15:03.329Z,3.6
2019-05-07T04:20:04.370Z,3.6
2019-05-07T04:25:04.304Z,3.7
2019-05-07T04:30:03.588Z,3.8
2019-05-07T04:35:03.814Z,4
2019-05-07T04:40:03.098Z,4.6
2019-05-07T04:45:04.130Z,5.8
2019-05-07T04:50:03.897Z,6.3
2019-05-07T04:55:03.963Z,6.6
2019-05-07T05:00:03.243Z,6.7
2019-05-07T05:05:03.233Z,6.6
2019-05-07T05:10:02.743Z,6.3
2019-05-07T05:15:02.227Z,6.2
2019-05-07T05:20:03.509Z,6.1
2019-05-07T05:25:02.493Z,6
2019-05-07T05:30:03.052Z,6
2019-05-07T05:35:03.287Z,6.2
2019-05-07T05:40:08.109Z,6.3
2019-05-07T05:45:02.136Z,6.4
2019-05-07T05:50:02.107Z,6.6
2019-05-07T05:55:02.571Z,6.9
2019-05-07T06:00:02.565Z,7.1
2019-05-07T06:05:02.145Z,7.2
2019-05-07T06:10:02.491Z,7.5
2019-05-07T06:15:01.927Z,7.7
2019-05-07T06:20:02.900Z,7.9
2019-05-07T06:25:02.317Z,8.2
2019-05-07T06:30:04.826Z,8.3
2019-05-07T06:35:03.069Z,8.6
2019-05-07T06:40:02.591Z,8.9
2019-05-07T06:45:02.888Z,9.2
2019-05-07T06:50:03.114Z,9.3
2019-05-07T06:55:03.311Z,9.8
2019-05-07T07:00:02.668Z,9.9
2019-05-07T07:05:02.814Z,10.1
2019-05-07T07:10:02.640Z,10.2
2019-05-07T07:15:02.696Z,10.5
2019-05-07T07:20:02.054Z,10.8
2019-05-07T07:25:02.519Z,10.9
2019-05-07T07:30:02.208Z,11
2019-05-07T07:35:02.362Z,11
2019-05-07T07:40:02.052Z,11.1
2019-05-07T07:45:02.977Z,11.5
2019-05-07T07:50:02.375Z,11.9
2019-05-07T07:55:02.253Z,12
2019-05-07T08:00:02.533Z,12.1
2019-05-07T08:05:02.065Z,12.3
2019-05-07T08:10:02.558Z,11.7
2019-05-07T08:15:14.330Z,11.9
2019-05-07T08:20:02.503Z,12.3
2019-05-07T08:25:02.421Z,12.2
2019-05-07T08:30:02.915Z,11.8
2019-05-07T08:35:02.319Z,11.1
2019-05-07T08:40:03.147Z,10.8
2019-05-07T08:45:02.869Z,10.7
2019-05-07T08:50:02.819Z,10.8
2019-05-07T08:55:02.208Z,11.5
2019-05-07T09:00:04.532Z,12.3
2019-05-07T09:05:02.902Z,13.2
2019-05-07T09:10:02.425Z,12.4
2019-05-07T09:15:02.258Z,11.7
2019-05-07T09:20:02.522Z,11.2
2019-05-07T09:25:03.030Z,10.2
2019-05-07T09:30:02.624Z,9.4
2019-05-07T09:35:02.244Z,8.7
2019-05-07T09:40:02.752Z,8.4
2019-05-07T09:45:01.870Z,8.7
2019-05-07T09:50:05.230Z,9.6
2019-05-07T09:55:06.678Z,10.4
2019-05-07T10:00:02.195Z,11.4
2019-05-07T10:05:02.505Z,11.9
2019-05-07T10:10:03.113Z,12.1
2019-05-07T10:15:03.023Z,11.6
2019-05-07T10:20:03.177Z,10.8
2019-05-07T10:25:02.783Z,10.3
2019-05-07T10:30:02.550Z,9.7
2019-05-07T10:35:02.233Z,9.7
2019-05-07T10:40:02.999Z,9.9
2019-05-07T10:45:03.052Z,10.9
2019-05-07T10:50:02.847Z,11.9
2019-05-07T10:55:02.836Z,13.1
2019-05-07T11:00:03.146Z,13.8
2019-05-07T11:05:02.270Z,13.5
2019-05-07T11:10:01.907Z,12.2
2019-05-07T11:15:02.231Z,11.9
2019-05-07T11:20:01.384Z,12.1
2019-05-07T11:25:02.993Z,12.7
2019-05-07T11:30:02.669Z,13.4
2019-05-07T11:35:03.077Z,13.8
2019-05-07T11:40:03.149Z,13.5
2019-05-07T11:45:02.152Z,13.6
2019-05-07T11:50:03.164Z,14.1
2019-05-07T11:55:03.110Z,14.6
2019-05-07T12:00:02.734Z,14.7
2019-05-07T12:05:02.042Z,14.4
2019-05-07T12:10:04.712Z,14.3
2019-05-07T12:15:02.410Z,13.5
2019-05-07T12:20:02.322Z,13
2019-05-07T12:25:02.589Z,12.6
2019-05-07T12:30:01.325Z,12.3
2019-05-07T12:35:02.339Z,12.1
2019-05-07T12:40:02.012Z,12.7
2019-05-07T12:45:02.274Z,14.5
2019-05-07T12:50:01.530Z,14.9
2019-05-07T12:55:03.223Z,15.5
2019-05-07T13:00:02.120Z,15.6
2019-05-07T13:05:02.856Z,16.1
2019-05-07T13:10:02.559Z,16
2019-05-07T13:15:02.890Z,16.4
2019-05-07T13:20:02.524Z,16.4
2019-05-07T13:25:02.357Z,14.6
2019-05-07T13:30:02.744Z,14.3
2019-05-07T13:35:02.635Z,14.2
2019-05-07T13:40:02.653Z,14
2019-05-07T13:45:02.758Z,15
2019-05-07T13:50:02.576Z,15.3
2019-05-07T13:55:01.739Z,14.7
2019-05-07T14:00:04.935Z,14.4
2019-05-07T14:05:01.986Z,14.1
2019-05-07T14:10:02.186Z,13.9
2019-05-07T14:15:02.215Z,14.3
2019-05-07T14:20:01.821Z,14.7
2019-05-07T14:25:01.973Z,14.3
2019-05-07T14:30:02.638Z,14.2
2019-05-07T14:35:02.179Z,15
2019-05-07T14:40:02.670Z,15.3
2019-05-07T14:45:01.541Z,14.7
2019-05-07T14:50:02.060Z,13.9
2019-05-07T14:55:04.887Z,13.6
2019-05-07T15:00:03.306Z,13.5
2019-05-07T15:05:02.756Z,13.5
2019-05-07T15:10:02.298Z,13.2
2019-05-07T15:15:02.150Z,13.1
2019-05-07T15:20:02.730Z,13
2019-05-07T15:25:02.857Z,13.1
2019-05-07T15:30:02.253Z,13.2
2019-05-07T15:35:02.154Z,13.4
2019-05-07T15:40:02.407Z,13.8
2019-05-07T15:45:02.360Z,14
2019-05-07T15:50:02.096Z,13.9
2019-05-07T15:55:02.701Z,13.7
2019-05-07T16:00:02.179Z,13.9
2019-05-07T16:05:02.141Z,13.9
2019-05-07T16:10:01.835Z,14.5
2019-05-07T16:15:03.125Z,15
2019-05-07T16:20:03.104Z,15.2
2019-05-07T16:25:05.279Z,15
2019-05-07T16:30:01.721Z,15.2
2019-05-07T16:35:02.621Z,15
2019-05-07T16:40:04.497Z,14.8
2019-05-07T16:45:02.848Z,15
2019-05-07T16:50:03.836Z,15
2019-05-07T16:55:02.951Z,14.8
2019-05-07T17:00:02.826Z,14.8
2019-05-07T17:05:03.079Z,14.8
2019-05-07T17:10:02.594Z,14.3
2019-05-07T17:15:02.875Z,14.3
2019-05-07T17:20:02.680Z,14.2
2019-05-07T17:25:03.093Z,14.2
2019-05-07T17:30:02.894Z,14
2019-05-07T17:35:03.472Z,13.7
2019-05-07T17:40:03.078Z,13.4
2019-05-07T17:45:02.847Z,13.1
2019-05-07T17:50:02.208Z,12.9
2019-05-07T17:55:02.507Z,12.6
2019-05-07T18:00:02.283Z,12.4
2019-05-07T18:05:02.799Z,12.4
2019-05-07T18:10:02.340Z,12.1
2019-05-07T18:15:02.347Z,11.9
2019-05-07T18:20:02.591Z,11.8
2019-05-07T18:25:01.815Z,11.6
2019-05-07T18:30:02.744Z,11.6
2019-05-07T18:35:02.473Z,11.4
2019-05-07T18:40:02.481Z,11.2
2019-05-07T18:45:02.239Z,11
2019-05-07T18:50:02.821Z,10.7
2019-05-07T18:55:02.672Z,10.4
2019-05-07T19:00:04.622Z,10.2
2019-05-07T19:05:02.722Z,9.9
2019-05-07T19:10:02.710Z,9.7
2019-05-07T19:15:02.865Z,9.6
2019-05-07T19:20:03.338Z,9.3
2019-05-07T19:25:02.948Z,9.2
2019-05-07T19:30:02.132Z,9.1
2019-05-07T19:35:01.444Z,8.8
2019-05-07T19:40:02.191Z,8.7
2019-05-07T19:45:02.711Z,8.4
2019-05-07T19:50:02.138Z,8.2
2019-05-07T19:55:04.676Z,8.1
2019-05-07T20:00:01.929Z,8
2019-05-07T20:05:03.457Z,7.9
2019-05-07T20:10:02.640Z,7.7
2019-05-07T20:15:02.696Z,7.6
2019-05-07T20:20:03.047Z,7.5
2019-05-07T20:25:12.971Z,7.2
2019-05-07T20:30:03.088Z,7.1
2019-05-07T20:35:02.778Z,6.9
2019-05-07T20:40:02.943Z,6.8
2019-05-07T20:45:02.958Z,6.8
2019-05-07T20:50:01.182Z,6.9
2019-05-07T20:55:02.089Z,6.7
2019-05-07T21:00:02.734Z,6.7
2019-05-07T21:05:02.924Z,6.6
2019-05-07T21:10:02.133Z,6.4
2019-05-07T21:15:03.389Z,6.4
2019-05-07T21:20:02.409Z,6.4
2019-05-07T21:25:02.647Z,6.5
2019-05-07T21:30:02.428Z,6.5
2019-05-07T21:35:01.497Z,6.5
2019-05-07T21:40:02.386Z,6.5
2019-05-07T21:45:02.264Z,6.5
2019-05-07T21:50:02.899Z,6.5
2019-05-07T21:55:02.331Z,6.4
2019-05-07T22:00:02.164Z,6.3
2019-05-07T22:05:02.582Z,6.4
2019-05-07T22:10:02.274Z,6.4
2019-05-07T22:15:04.082Z,6.4
2019-05-07T22:20:03.180Z,6.4
2019-05-07T22:25:05.196Z,6.4
2019-05-07T22:30:02.198Z,6.4
2019-05-07T22:35:02.743Z,6.3
2019-05-07T22:40:02.731Z,6.2
2019-05-07T22:45:02.749Z,6.2
2019-05-07T22:50:02.737Z,6.2
2019-05-07T22:55:01.258Z,6.2
2019-05-07T23:00:02.043Z,6.2
2019-05-07T23:05:02.819Z,6.2
2019-05-07T23:10:02.777Z,6.4
2019-05-07T23:15:02.680Z,6.4
2019-05-07T23:20:02.105Z,6.5
2019-05-07T23:25:02.020Z,6.5
2019-05-07T23:30:02.517Z,6.4
2019-05-07T23:35:01.893Z,6.4
2019-05-07T23:40:02.997Z,6.4
2019-05-07T23:45:02.148Z,6.5
2019-05-07T23:50:02.001Z,6.4
2019-05-07T23:55:02.813Z,6.4
